sensor_id;sensor_type;location;lat;lon;timestamp;pressure;altitude;pressure_sealevel;temperature;humidity
53689;BME280;39583;54.682;30.662;2023-12-20T06:29:06;97982.50;;;2.53;100.00
53689;BME280;39583;54.682;30.662;2023-12-20T06:31:34;97988.22;;;2.56;100.00
53689;BME280;39583;54.682;30.662;2023-12-20T06:34:01;97990.28;;;2.61;100.00
53689;BME280;39583;54.682;30.662;2023-12-20T06:36:34;97989.06;;;2.63;100.00
53689;BME280;39583;54.682;30.662;2023-12-20T06:39:01;97993.53;;;2.70;100.00
53689;BME280;39583;54.682;30.662;2023-12-20T06:41:29;97985.78;;;2.75;100.00
53689;BME280;39583;54.682;30.662;2023-12-20T06:43:56;97996.00;;;2.78;100.00
53689;BME280;39583;54.682;30.662;2023-12-20T06:46:24;98005.19;;;2.82;100.00
53689;BME280;39583;54.682;30.662;2023-12-20T06:48:51;98007.63;;;2.83;100.00
53689;BME280;39583;54.682;30.662;2023-12-20T06:51:18;98009.69;;;2.88;100.00
53689;BME280;39583;54.682;30.662;2023-12-20T06:53:47;98002.31;;;2.90;100.00
53689;BME280;39583;54.682;30.662;2023-12-20T06:56:14;98008.44;;;2.90;100.00
53689;BME280;39583;54.682;30.662;2023-12-20T06:58:46;98015.19;;;2.93;100.00
53689;BME280;39583;54.682;30.662;2023-12-20T07:01:14;98012.94;;;2.96;100.00
53689;BME280;39583;54.682;30.662;2023-12-20T07:03:43;97995.16;;;2.90;100.00
53689;BME280;39583;54.682;30.662;2023-12-20T07:06:10;98012.94;;;2.96;100.00
53689;BME280;39583;54.682;30.662;2023-12-20T07:08:40;98023.16;;;3.00;100.00
53689;BME280;39583;54.682;30.662;2023-12-20T07:11:07;98020.31;;;3.01;100.00
53689;BME280;39583;54.682;30.662;2023-12-20T07:13:35;98019.88;;;3.04;100.00
53689;BME280;39583;54.682;30.662;2023-12-20T07:16:03;98016.41;;;3.04;100.00
53689;BME280;39583;54.682;30.662;2023-12-20T07:18:30;98020.09;;;3.03;100.00
53689;BME280;39583;54.682;30.662;2023-12-20T07:20:57;98023.34;;;3.05;100.00
53689;BME280;39583;54.682;30.662;2023-12-20T07:23:25;98020.06;;;3.09;100.00
53689;BME280;39583;54.682;30.662;2023-12-20T07:25:53;98024.78;;;3.14;100.00
53689;BME280;39583;54.682;30.662;2023-12-20T07:28:21;98026.81;;;3.18;100.00
53689;BME280;39583;54.682;30.662;2023-12-20T07:30:48;98018.63;;;3.20;100.00
53689;BME280;39583;54.682;30.662;2023-12-20T07:33:16;98015.53;;;3.23;100.00
53689;BME280;39583;54.682;30.662;2023-12-20T07:35:43;98015.16;;;3.19;100.00
53689;BME280;39583;54.682;30.662;2023-12-20T07:38:13;98024.13;;;3.25;100.00
53689;BME280;39583;54.682;30.662;2023-12-20T07:40:40;98031.50;;;3.23;100.00
53689;BME280;39583;54.682;30.662;2023-12-20T07:43:07;98030.28;;;3.25;100.00
53689;BME280;39583;54.682;30.662;2023-12-20T07:45:35;98023.31;;;3.31;100.00
53689;BME280;39583;54.682;30.662;2023-12-20T07:48:04;98034.94;;;3.37;100.00
53689;BME280;39583;54.682;30.662;2023-12-20T07:50:32;98037.59;;;3.37;100.00
53689;BME280;39583;54.682;30.662;2023-12-20T07:53:00;98038.63;;;3.36;100.00
53689;BME280;39583;54.682;30.662;2023-12-20T07:55:28;98035.59;;;3.39;100.00
53689;BME280;39583;54.682;30.662;2023-12-20T07:57:55;98032.72;;;3.40;100.00
53689;BME280;39583;54.682;30.662;2023-12-20T08:00:23;98038.25;;;3.39;100.00
53689;BME280;39583;54.682;30.662;2023-12-20T08:02:50;98032.72;;;3.40;100.00
53689;BME280;39583;54.682;30.662;2023-12-20T08:05:18;98032.88;;;3.45;100.00
53689;BME280;39583;54.682;30.662;2023-12-20T08:07:45;97982.59;;;3.24;100.00
53689;BME280;39583;54.682;30.662;2023-12-20T08:10:13;98028.97;;;3.54;100.00
53689;BME280;39583;54.682;30.662;2023-12-20T08:12:40;98039.03;;;3.52;100.00
53689;BME280;39583;54.682;30.662;2023-12-20T08:15:08;98036.34;;;3.52;100.00
53689;BME280;39583;54.682;30.662;2023-12-20T08:17:36;98042.47;;;3.60;100.00
53689;BME280;39583;54.682;30.662;2023-12-20T08:20:03;98048.59;;;3.60;100.00
53689;BME280;39583;54.682;30.662;2023-12-20T08:22:32;98045.94;;;3.60;100.00
53689;BME280;39583;54.682;30.662;2023-12-20T08:24:59;98045.94;;;3.60;100.00
53689;BME280;39583;54.682;30.662;2023-12-20T08:27:27;98047.34;;;3.63;100.00
53689;BME280;39583;54.682;30.662;2023-12-20T08:29:54;98050.66;;;3.58;100.00
53689;BME280;39583;54.682;30.662;2023-12-20T08:32:22;98050.91;;;3.43;100.00
53689;BME280;39583;54.682;30.662;2023-12-20T08:34:49;98050.91;;;3.37;100.00
53689;BME280;39583;54.682;30.662;2023-12-20T08:37:17;98058.72;;;3.32;100.00
53689;BME280;39583;54.682;30.662;2023-12-20T08:39:44;98056.69;;;3.27;100.00
53689;BME280;39583;54.682;30.662;2023-12-20T08:42:12;98050.53;;;3.20;100.00
53689;BME280;39583;54.682;30.662;2023-12-20T08:44:39;98046.63;;;3.22;100.00
53689;BME280;39583;54.682;30.662;2023-12-20T08:47:07;98059.09;;;3.35;100.00
53689;BME280;39583;54.682;30.662;2023-12-20T08:49:34;98063.00;;;3.39;100.00
53689;BME280;39583;54.682;30.662;2023-12-20T08:52:02;98060.34;;;3.39;100.00
53689;BME280;39583;54.682;30.662;2023-12-20T08:54:29;98054.19;;;3.39;100.00
53689;BME280;39583;54.682;30.662;2023-12-20T08:56:57;98052.75;;;3.36;100.00
53689;BME280;39583;54.682;30.662;2023-12-20T08:59:24;98048.47;;;3.35;100.00
53689;BME280;39583;54.682;30.662;2023-12-20T09:01:52;98056.66;;;3.34;100.00
53689;BME280;39583;54.682;30.662;2023-12-20T09:04:22;98052.75;;;3.36;100.00
53689;BME280;39583;54.682;30.662;2023-12-20T09:06:49;98053.19;;;3.40;100.00
53689;BME280;39583;54.682;30.662;2023-12-20T09:09:17;98044.13;;;3.47;100.00
53689;BME280;39583;54.682;30.662;2023-12-20T09:11:44;98046.38;;;3.50;100.00
53689;BME280;39583;54.682;30.662;2023-12-20T09:14:13;98044.69;;;3.63;100.00
53689;BME280;39583;54.682;30.662;2023-12-20T09:16:41;98032.78;;;3.72;100.00
53689;BME280;39583;54.682;30.662;2023-12-20T09:19:08;98031.94;;;3.84;100.00
53689;BME280;39583;54.682;30.662;2023-12-20T09:21:36;98018.19;;;3.88;100.00
53689;BME280;39583;54.682;30.662;2023-12-20T09:24:03;98041.03;;;4.08;100.00
53689;BME280;39583;54.682;30.662;2023-12-20T09:26:30;98045.72;;;4.13;100.00
53689;BME280;39583;54.682;30.662;2023-12-20T09:28:58;98045.69;;;4.20;100.00
53689;BME280;39583;54.682;30.662;2023-12-20T09:31:25;98050.53;;;4.29;100.00
53689;BME280;39583;54.682;30.662;2023-12-20T09:33:53;98044.97;;;4.37;100.00
53689;BME280;39583;54.682;30.662;2023-12-20T09:36:21;98047.78;;;4.42;100.00
53689;BME280;39583;54.682;30.662;2023-12-20T09:38:48;98037.34;;;4.41;100.00
53689;BME280;39583;54.682;30.662;2023-12-20T09:41:15;98033.47;;;4.37;100.00
53689;BME280;39583;54.682;30.662;2023-12-20T09:43:43;98024.28;;;4.33;100.00
53689;BME280;39583;54.682;30.662;2023-12-20T09:46:11;98020.00;;;4.32;100.00
53689;BME280;39583;54.682;30.662;2023-12-20T09:48:41;98027.34;;;4.36;100.00
53689;BME280;39583;54.682;30.662;2023-12-20T09:51:08;98035.38;;;4.30;100.00
53689;BME280;39583;54.682;30.662;2023-12-20T09:53:36;98032.38;;;4.20;100.00
53689;BME280;39583;54.682;30.662;2023-12-20T09:56:05;98029.09;;;4.18;100.00
53689;BME280;39583;54.682;30.662;2023-12-20T09:58:36;98022.47;;;4.27;100.00
53689;BME280;39583;54.682;30.662;2023-12-20T10:01:05;98026.09;;;4.39;100.00
53689;BME280;39583;54.682;30.662;2023-12-20T10:03:32;98030.88;;;4.55;100.00
53689;BME280;39583;54.682;30.662;2023-12-20T10:06:01;98015.56;;;4.51;100.00
53689;BME280;39583;54.682;30.662;2023-12-20T10:08:28;98028.56;;;4.65;100.00
53689;BME280;39583;54.682;30.662;2023-12-20T10:10:57;98026.69;;;4.72;100.00
53689;BME280;39583;54.682;30.662;2023-12-20T10:13:30;98032.97;;;4.78;100.00
53689;BME280;39583;54.682;30.662;2023-12-20T10:15:57;98040.53;;;4.81;100.00
53689;BME280;39583;54.682;30.662;2023-12-20T10:18:24;98050.81;;;4.78;100.00
53689;BME280;39583;54.682;30.662;2023-12-20T10:21:06;98046.69;;;4.82;100.00
53689;BME280;39583;54.682;30.662;2023-12-20T10:23:34;98047.78;;;4.99;100.00
53689;BME280;39583;54.682;30.662;2023-12-20T10:26:02;98048.03;;;5.16;100.00
53689;BME280;39583;54.682;30.662;2023-12-20T10:28:33;98049.19;;;5.26;100.00
53689;BME280;39583;54.682;30.662;2023-12-20T10:31:02;98050.59;;;5.29;100.00
53689;BME280;39583;54.682;30.662;2023-12-20T10:33:30;98044.72;;;5.20;100.00
53689;BME280;39583;54.682;30.662;2023-12-20T10:36:00;98049.16;;;5.08;100.00
53689;BME280;39583;54.682;30.662;2023-12-20T10:38:27;98045.13;;;4.99;100.00
53689;BME280;39583;54.682;30.662;2023-12-20T10:40:58;98050.94;;;4.89;100.00
53689;BME280;39583;54.682;30.662;2023-12-20T10:43:28;98034.81;;;4.78;100.00
53689;BME280;39583;54.682;30.662;2023-12-20T10:45:58;98040.81;;;4.73;100.00
53689;BME280;39583;54.682;30.662;2023-12-20T10:48:27;98034.09;;;4.70;100.00
53689;BME280;39583;54.682;30.662;2023-12-20T10:50:58;98033.03;;;4.71;100.00
53689;BME280;39583;54.682;30.662;2023-12-20T10:53:25;98039.41;;;4.70;100.00
53689;BME280;39583;54.682;30.662;2023-12-20T10:55:55;98042.50;;;4.67;100.00
53689;BME280;39583;54.682;30.662;2023-12-20T10:58:25;98038.28;;;4.53;100.00
53689;BME280;39583;54.682;30.662;2023-12-20T11:01:00;98049.44;;;4.43;100.00
53689;BME280;39583;54.682;30.662;2023-12-20T11:03:35;98037.63;;;4.33;100.00
53689;BME280;39583;54.682;30.662;2023-12-20T11:06:10;98024.41;;;4.13;100.00
53689;BME280;39583;54.682;30.662;2023-12-20T11:08:51;98027.88;;;4.13;100.00
53689;BME280;39583;54.682;30.662;2023-12-20T11:14:17;98033.78;;;3.84;100.00
53689;BME280;39583;54.682;30.662;2023-12-20T11:16:46;98025.63;;;3.79;100.00
53689;BME280;39583;54.682;30.662;2023-12-20T11:19:21;98029.31;;;3.78;100.00
53689;BME280;39583;54.682;30.662;2023-12-20T11:21:48;98025.78;;;3.84;100.00
53689;BME280;39583;54.682;30.662;2023-12-20T11:24:16;98026.66;;;3.78;100.00
53689;BME280;39583;54.682;30.662;2023-12-20T11:26:47;98012.53;;;3.71;100.00
53689;BME280;39583;54.682;30.662;2023-12-20T11:29:32;98022.31;;;3.77;100.00
53689;BME280;39583;54.682;30.662;2023-12-20T11:34:53;98012.84;;;3.88;100.00
53689;BME280;39583;54.682;30.662;2023-12-20T11:37:21;98009.97;;;3.96;100.00
53689;BME280;39583;54.682;30.662;2023-12-20T11:39:55;98016.69;;;4.05;100.00
53689;BME280;39583;54.682;30.662;2023-12-20T11:42:24;98021.81;;;4.00;100.00
53689;BME280;39583;54.682;30.662;2023-12-20T11:44:51;98005.22;;;3.98;100.00
53689;BME280;39583;54.682;30.662;2023-12-20T11:47:19;98005.81;;;4.06;100.00
53689;BME280;39583;54.682;30.662;2023-12-20T11:49:47;98009.44;;;4.12;100.00
53689;BME280;39583;54.682;30.662;2023-12-20T11:52:16;98018.75;;;3.96;100.00
53689;BME280;39583;54.682;30.662;2023-12-20T11:54:43;98017.78;;;3.91;100.00
53689;BME280;39583;54.682;30.662;2023-12-20T11:57:11;98016.75;;;3.92;100.00
53689;BME280;39583;54.682;30.662;2023-12-20T11:59:38;98011.81;;;3.95;100.00
53689;BME280;39583;54.682;30.662;2023-12-20T12:02:06;98003.59;;;3.97;100.00
53689;BME280;39583;54.682;30.662;2023-12-20T12:04:34;98002.13;;;4.07;100.00
53689;BME280;39583;54.682;30.662;2023-12-20T12:07:02;98008.19;;;4.14;100.00
53689;BME280;39583;54.682;30.662;2023-12-20T12:09:30;98007.78;;;4.18;100.00
53689;BME280;39583;54.682;30.662;2023-12-20T12:11:58;98016.38;;;4.20;100.00
53689;BME280;39583;54.682;30.662;2023-12-20T12:14:25;97997.81;;;4.06;100.00
53689;BME280;39583;54.682;30.662;2023-12-20T12:16:53;98014.19;;;4.10;100.00
53689;BME280;39583;54.682;30.662;2023-12-20T12:19:25;98018.84;;;4.14;100.00
53689;BME280;39583;54.682;30.662;2023-12-20T12:22:14;98024.19;;;4.14;100.00
53689;BME280;39583;54.682;30.662;2023-12-20T12:24:44;98017.06;;;4.08;100.00
53689;BME280;39583;54.682;30.662;2023-12-20T12:27:15;98004.41;;;4.04;100.00
53689;BME280;39583;54.682;30.662;2023-12-20T12:30:03;98017.66;;;4.10;100.00
53689;BME280;39583;54.682;30.662;2023-12-20T12:32:32;98015.66;;;4.06;100.00
53689;BME280;39583;54.682;30.662;2023-12-20T12:34:59;98008.88;;;4.03;100.00
53689;BME280;39583;54.682;30.662;2023-12-20T12:37:27;98002.94;;;4.01;100.00
53689;BME280;39583;54.682;30.662;2023-12-20T12:39:55;98014.47;;;3.95;100.00
53689;BME280;39583;54.682;30.662;2023-12-20T12:42:26;98020.44;;;3.91;100.00
53689;BME280;39583;54.682;30.662;2023-12-20T12:44:56;98016.59;;;3.80;100.00
53689;BME280;39583;54.682;30.662;2023-12-20T12:47:23;98012.09;;;3.74;100.00
53689;BME280;39583;54.682;30.662;2023-12-20T12:49:52;98018.88;;;3.70;100.00
53689;BME280;39583;54.682;30.662;2023-12-20T12:52:20;98020.34;;;3.59;100.00
53689;BME280;39583;54.682;30.662;2023-12-20T12:54:48;98029.59;;;3.50;100.00
53689;BME280;39583;54.682;30.662;2023-12-20T12:57:16;98016.28;;;3.50;100.00
53689;BME280;39583;54.682;30.662;2023-12-20T12:59:45;98024.47;;;3.48;100.00
53689;BME280;39583;54.682;30.662;2023-12-20T13:02:16;97997.31;;;3.33;100.00
53689;BME280;39583;54.682;30.662;2023-12-20T13:04:43;98015.50;;;3.43;100.00
53689;BME280;39583;54.682;30.662;2023-12-20T13:07:11;98014.47;;;3.44;100.00
53689;BME280;39583;54.682;30.662;2023-12-20T13:09:39;98017.75;;;3.46;100.00
53689;BME280;39583;54.682;30.662;2023-12-20T13:12:07;98015.28;;;3.44;100.00
53689;BME280;39583;54.682;30.662;2023-12-20T13:14:35;98015.50;;;3.43;100.00
53689;BME280;39583;54.682;30.662;2023-12-20T13:17:05;98011.00;;;3.37;100.00
53689;BME280;39583;54.682;30.662;2023-12-20T13:19:33;98021.84;;;3.35;100.00
53689;BME280;39583;54.682;30.662;2023-12-20T13:22:01;98023.53;;;3.30;100.00
53689;BME280;39583;54.682;30.662;2023-12-20T13:24:29;98021.88;;;3.29;100.00
53689;BME280;39583;54.682;30.662;2023-12-20T13:26:57;98026.38;;;3.28;100.00
53689;BME280;39583;54.682;30.662;2023-12-20T13:29:24;98026.19;;;3.23;100.00
53689;BME280;39583;54.682;30.662;2023-12-20T13:31:54;98027.22;;;3.22;100.00
53689;BME280;39583;54.682;30.662;2023-12-20T13:34:22;98018.84;;;3.18;100.00
53689;BME280;39583;54.682;30.662;2023-12-20T13:36:50;98017.63;;;3.14;100.00
53689;BME280;39583;54.682;30.662;2023-12-20T13:39:18;98025.38;;;3.09;100.00
53689;BME280;39583;54.682;30.662;2023-12-20T13:41:46;98019.84;;;3.11;100.00
53689;BME280;39583;54.682;30.662;2023-12-20T13:44:13;98020.28;;;3.08;100.00
53689;BME280;39583;54.682;30.662;2023-12-20T13:46:41;98020.50;;;3.06;100.00
53689;BME280;39583;54.682;30.662;2023-12-20T13:49:10;98020.66;;;3.11;100.00
53689;BME280;39583;54.682;30.662;2023-12-20T13:51:39;98013.72;;;3.10;100.00
53689;BME280;39583;54.682;30.662;2023-12-20T13:54:06;98014.16;;;3.07;100.00
53689;BME280;39583;54.682;30.662;2023-12-20T13:56:34;98009.25;;;3.04;100.00
53689;BME280;39583;54.682;30.662;2023-12-20T13:59:13;98008.63;;;3.02;100.00
53689;BME280;39583;54.682;30.662;2023-12-20T14:01:42;98008.63;;;3.02;100.00
53689;BME280;39583;54.682;30.662;2023-12-20T14:04:10;98011.09;;;3.04;100.00
53689;BME280;39583;54.682;30.662;2023-12-20T14:06:58;98016.19;;;3.05;100.00
53689;BME280;39583;54.682;30.662;2023-12-20T14:09:26;98011.09;;;3.04;100.00
53689;BME280;39583;54.682;30.662;2023-12-20T14:11:53;98009.47;;;3.03;100.00
53689;BME280;39583;54.682;30.662;2023-12-20T14:14:22;98016.00;;;3.00;100.00
53689;BME280;39583;54.682;30.662;2023-12-20T14:16:50;98011.50;;;3.01;100.00
53689;BME280;39583;54.682;30.662;2023-12-20T14:19:18;98007.63;;;3.03;100.00
53689;BME280;39583;54.682;30.662;2023-12-20T14:21:45;98003.31;;;3.02;100.00
53689;BME280;39583;54.682;30.662;2023-12-20T14:24:13;98007.22;;;3.00;100.00
53689;BME280;39583;54.682;30.662;2023-12-20T14:26:42;98006.59;;;2.97;100.00
53689;BME280;39583;54.682;30.662;2023-12-20T14:29:13;98006.41;;;2.92;100.00
53689;BME280;39583;54.682;30.662;2023-12-20T14:31:40;97998.25;;;2.87;100.00
53689;BME280;39583;54.682;30.662;2023-12-20T14:34:08;97992.28;;;2.85;100.00
53689;BME280;39583;54.682;30.662;2023-12-20T14:36:36;97997.00;;;2.83;100.00
53689;BME280;39583;54.682;30.662;2023-12-20T14:39:04;97994.53;;;2.82;100.00
53689;BME280;39583;54.682;30.662;2023-12-20T14:41:34;97990.66;;;2.78;100.00
53689;BME280;39583;54.682;30.662;2023-12-20T14:44:02;97982.91;;;2.76;100.00
53689;BME280;39583;54.682;30.662;2023-12-20T14:46:32;97973.50;;;2.74;100.00
53689;BME280;39583;54.682;30.662;2023-12-20T14:48:59;97961.03;;;2.67;100.00
53689;BME280;39583;54.682;30.662;2023-12-20T14:51:31;97967.97;;;2.69;100.00
53689;BME280;39583;54.682;30.662;2023-12-20T14:53:58;97970.22;;;2.72;100.00
53689;BME280;39583;54.682;30.662;2023-12-20T14:56:26;97958.56;;;2.73;100.00
53689;BME280;39583;54.682;30.662;2023-12-20T14:58:54;97965.53;;;2.67;100.00
53689;BME280;39583;54.682;30.662;2023-12-20T15:01:22;97953.06;;;2.61;100.00
53689;BME280;39583;54.682;30.662;2023-12-20T15:03:51;97952.66;;;2.57;100.00
53689;BME280;39583;54.682;30.662;2023-12-20T15:06:18;97945.69;;;2.56;100.00
53689;BME280;39583;54.682;30.662;2023-12-20T15:08:47;97950.63;;;2.53;100.00
53689;BME280;39583;54.682;30.662;2023-12-20T15:11:15;97936.31;;;2.41;100.00
53689;BME280;39583;54.682;30.662;2023-12-20T15:13:42;97946.13;;;2.47;100.00
53689;BME280;39583;54.682;30.662;2023-12-20T15:16:10;97944.91;;;2.43;100.00
53689;BME280;39583;54.682;30.662;2023-12-20T15:18:38;97942.44;;;2.41;100.00
53689;BME280;39583;54.682;30.662;2023-12-20T15:21:06;97937.94;;;2.42;100.00
53689;BME280;39583;54.682;30.662;2023-12-20T15:23:33;97937.31;;;2.46;100.00
53689;BME280;39583;54.682;30.662;2023-12-20T15:26:01;97940.63;;;2.48;100.00
53689;BME280;39583;54.682;30.662;2023-12-20T15:28:30;97931.41;;;2.51;100.00
53689;BME280;39583;54.682;30.662;2023-12-20T15:30:57;97932.03;;;2.53;100.00
53689;BME280;39583;54.682;30.662;2023-12-20T15:33:25;97930.59;;;2.50;100.00
53689;BME280;39583;54.682;30.662;2023-12-20T15:35:52;97923.22;;;2.46;100.00
53689;BME280;39583;54.682;30.662;2023-12-20T15:38:20;97924.88;;;2.40;100.00
53689;BME280;39583;54.682;30.662;2023-12-20T15:40:47;97922.22;;;2.40;100.00
53689;BME280;39583;54.682;30.662;2023-12-20T15:43:15;97929.38;;;2.40;100.00
53689;BME280;39583;54.682;30.662;2023-12-20T15:45:43;97924.06;;;2.40;100.00
53689;BME280;39583;54.682;30.662;2023-12-20T15:48:13;97922.44;;;2.39;100.00
53689;BME280;39583;54.682;30.662;2023-12-20T15:50:46;97918.16;;;2.38;100.00
53689;BME280;39583;54.682;30.662;2023-12-20T15:53:14;97912.41;;;2.34;100.00
53689;BME280;39583;54.682;30.662;2023-12-20T15:55:42;97909.75;;;2.34;100.00
53689;BME280;39583;54.682;30.662;2023-12-20T15:58:12;97913.63;;;2.31;100.00
53689;BME280;39583;54.682;30.662;2023-12-20T16:00:40;97913.84;;;2.30;100.00
53689;BME280;39583;54.682;30.662;2023-12-20T16:03:07;97905.47;;;2.26;100.00
53689;BME280;39583;54.682;30.662;2023-12-20T16:05:52;97910.38;;;2.29;100.00
53689;BME280;39583;54.682;30.662;2023-12-20T16:08:21;97897.09;;;2.16;100.00
53689;BME280;39583;54.682;30.662;2023-12-20T16:10:49;97913.66;;;2.25;100.00
53689;BME280;39583;54.682;30.662;2023-12-20T16:13:16;97914.88;;;2.22;100.00
53689;BME280;39583;54.682;30.662;2023-12-20T16:15:44;97912.22;;;2.22;100.00
53689;BME280;39583;54.682;30.662;2023-12-20T16:18:12;97905.25;;;2.21;100.00
53689;BME280;39583;54.682;30.662;2023-12-20T16:20:40;97904.44;;;2.21;100.00
53689;BME280;39583;54.682;30.662;2023-12-20T16:23:10;97898.94;;;2.09;100.00
53689;BME280;39583;54.682;30.662;2023-12-20T16:25:38;97900.56;;;2.17;100.00
53689;BME280;39583;54.682;30.662;2023-12-20T16:28:06;97906.69;;;2.17;100.00
53689;BME280;39583;54.682;30.662;2023-12-20T16:30:33;97902.41;;;2.16;100.00
53689;BME280;39583;54.682;30.662;2023-12-20T16:33:03;97905.88;;;2.17;100.00
53689;BME280;39583;54.682;30.662;2023-12-20T16:35:30;97904.84;;;2.18;100.00
53689;BME280;39583;54.682;30.662;2023-12-20T16:37:58;97901.38;;;2.17;100.00
53689;BME280;39583;54.682;30.662;2023-12-20T16:40:25;97893.84;;;2.14;100.00
53689;BME280;39583;54.682;30.662;2023-12-20T16:42:53;97898.53;;;2.19;100.00
53689;BME280;39583;54.682;30.662;2023-12-20T16:45:24;97895.66;;;2.20;100.00
53689;BME280;39583;54.682;30.662;2023-12-20T16:47:53;97891.78;;;2.23;100.00
53689;BME280;39583;54.682;30.662;2023-12-20T16:50:20;97898.13;;;2.28;100.00
53689;BME280;39583;54.682;30.662;2023-12-20T16:52:51;97901.97;;;2.32;100.00
53689;BME280;39583;54.682;30.662;2023-12-20T16:55:20;97874.41;;;2.20;100.00
53689;BME280;39583;54.682;30.662;2023-12-20T16:57:48;97884.00;;;2.41;100.00
53689;BME280;39583;54.682;30.662;2023-12-20T17:00:19;97871.94;;;2.45;100.00
53689;BME280;39583;54.682;30.662;2023-12-20T17:02:55;97872.75;;;2.46;100.00
53689;BME280;39583;54.682;30.662;2023-12-20T17:05:23;97869.28;;;2.45;100.00
53689;BME280;39583;54.682;30.662;2023-12-20T17:07:51;97867.22;;;2.47;100.00
53689;BME280;39583;54.682;30.662;2023-12-20T17:10:21;97871.53;;;2.48;100.00
53689;BME280;39583;54.682;30.662;2023-12-20T17:12:48;97874.38;;;2.53;100.00
53689;BME280;39583;54.682;30.662;2023-12-20T17:15:16;97873.97;;;2.56;100.00
53689;BME280;39583;54.682;30.662;2023-12-20T17:17:43;97864.38;;;2.55;100.00
53689;BME280;39583;54.682;30.662;2023-12-20T17:20:12;97863.56;;;2.55;100.00
53689;BME280;39583;54.682;30.662;2023-12-20T17:22:40;97862.72;;;2.54;100.00
53689;BME280;39583;54.682;30.662;2023-12-20T17:25:08;97851.50;;;2.52;100.00
53689;BME280;39583;54.682;30.662;2023-12-20T17:27:35;97850.69;;;2.45;100.00
53689;BME280;39583;54.682;30.662;2023-12-20T17:30:04;97851.09;;;2.42;100.00
53689;BME280;39583;54.682;30.662;2023-12-20T17:32:32;97846.19;;;2.46;100.00
53689;BME280;39583;54.682;30.662;2023-12-20T17:35:04;97846.19;;;2.46;100.00
53689;BME280;39583;54.682;30.662;2023-12-20T17:37:32;97839.06;;;2.40;100.00
53689;BME280;39583;54.682;30.662;2023-12-20T17:40:00;97833.97;;;2.38;100.00
53689;BME280;39583;54.682;30.662;2023-12-20T17:42:27;97840.47;;;2.42;100.00
53689;BME280;39583;54.682;30.662;2023-12-20T17:44:55;97832.09;;;2.45;100.00
53689;BME280;39583;54.682;30.662;2023-12-20T17:47:22;97836.81;;;2.43;100.00
53689;BME280;39583;54.682;30.662;2023-12-20T17:49:51;97834.75;;;2.45;100.00
53689;BME280;39583;54.682;30.662;2023-12-20T17:52:18;97832.69;;;2.47;100.00
53689;BME280;39583;54.682;30.662;2023-12-20T17:54:48;97836.59;;;2.45;100.00
53689;BME280;39583;54.682;30.662;2023-12-20T17:57:16;97837.44;;;2.39;100.00
53689;BME280;39583;54.682;30.662;2023-12-20T17:59:51;97823.75;;;2.35;100.00
53689;BME280;39583;54.682;30.662;2023-12-20T18:02:21;97828.84;;;2.30;100.00
53689;BME280;39583;54.682;30.662;2023-12-20T18:04:49;97821.13;;;2.22;100.00
53689;BME280;39583;54.682;30.662;2023-12-20T18:07:18;97834.59;;;2.27;100.00
53689;BME280;39583;54.682;30.662;2023-12-20T18:09:47;97830.50;;;2.24;100.00
53689;BME280;39583;54.682;30.662;2023-12-20T18:12:15;97829.91;;;2.22;100.00
53689;BME280;39583;54.682;30.662;2023-12-20T18:14:44;97827.44;;;2.21;100.00
53689;BME280;39583;54.682;30.662;2023-12-20T18:17:14;97817.22;;;2.24;100.00
53689;BME280;39583;54.682;30.662;2023-12-20T18:19:41;97825.19;;;2.24;100.00
53689;BME280;39583;54.682;30.662;2023-12-20T18:22:09;97812.31;;;2.21;100.00
53689;BME280;39583;54.682;30.662;2023-12-20T18:24:39;97809.06;;;2.19;100.00
53689;BME280;39583;54.682;30.662;2023-12-20T18:27:09;97801.50;;;2.16;100.00
53689;BME280;39583;54.682;30.662;2023-12-20T18:29:38;97813.38;;;2.14;100.00
53689;BME280;39583;54.682;30.662;2023-12-20T18:32:08;97799.88;;;2.15;100.00
53689;BME280;39583;54.682;30.662;2023-12-20T18:34:37;97803.56;;;2.14;100.00
53689;BME280;39583;54.682;30.662;2023-12-20T18:37:05;97795.81;;;2.13;100.00
53689;BME280;39583;54.682;30.662;2023-12-20T18:39:40;97793.56;;;2.10;100.00
53689;BME280;39583;54.682;30.662;2023-12-20T18:42:07;97798.25;;;2.07;100.00
53689;BME280;39583;54.682;30.662;2023-12-20T18:44:35;97782.13;;;2.02;100.00
53689;BME280;39583;54.682;30.662;2023-12-20T18:47:03;97778.88;;;2.00;100.00
53689;BME280;39583;54.682;30.662;2023-12-20T18:49:31;97780.72;;;2.00;100.00
53689;BME280;39583;54.682;30.662;2023-12-20T18:51:59;97773.97;;;1.97;100.00
53689;BME280;39583;54.682;30.662;2023-12-20T18:54:27;97777.66;;;1.96;100.00
53689;BME280;39583;54.682;30.662;2023-12-20T18:56:54;97761.50;;;1.91;100.00
